sensor_id;sensor_type;location;lat;lon;timestamp;P1;durP1;ratioP1;P2;durP2;ratioP2
23682;SDS011;24897;53.514;10.482;2023-04-24T00:02:30;38.13;;;33.80;;
23682;SDS011;24897;53.514;10.482;2023-04-24T00:05:16;39.07;;;34.77;;
23682;SDS011;24897;53.514;10.482;2023-04-24T00:08:01;40.03;;;34.53;;
23682;SDS011;24897;53.514;10.482;2023-04-24T00:10:45;39.03;;;34.77;;
23682;SDS011;24897;53.514;10.482;2023-04-24T00:13:29;42.83;;;35.70;;
23682;SDS011;24897;53.514;10.482;2023-04-24T00:16:13;43.90;;;37.53;;
23682;SDS011;24897;53.514;10.482;2023-04-24T00:18:58;43.67;;;35.07;;
23682;SDS011;24897;53.514;10.482;2023-04-24T00:21:44;43.73;;;35.43;;
23682;SDS011;24897;53.514;10.482;2023-04-24T00:24:28;49.33;;;40.67;;
23682;SDS011;24897;53.514;10.482;2023-04-24T00:27:12;50.10;;;39.87;;
23682;SDS011;24897;53.514;10.482;2023-04-24T00:29:57;51.20;;;42.33;;
23682;SDS011;24897;53.514;10.482;2023-04-24T00:32:41;48.53;;;39.43;;
23682;SDS011;24897;53.514;10.482;2023-04-24T00:35:25;50.43;;;42.07;;
23682;SDS011;24897;53.514;10.482;2023-04-24T00:38:09;50.50;;;42.23;;
23682;SDS011;24897;53.514;10.482;2023-04-24T00:40:54;49.03;;;39.53;;
23682;SDS011;24897;53.514;10.482;2023-04-24T00:43:38;47.73;;;39.50;;
23682;SDS011;24897;53.514;10.482;2023-04-24T00:46:23;44.60;;;38.60;;
23682;SDS011;24897;53.514;10.482;2023-04-24T00:49:07;43.53;;;38.20;;
23682;SDS011;24897;53.514;10.482;2023-04-24T00:51:51;43.80;;;37.80;;
23682;SDS011;24897;53.514;10.482;2023-04-24T00:54:37;44.70;;;39.70;;
23682;SDS011;24897;53.514;10.482;2023-04-24T00:57:21;45.33;;;37.33;;
23682;SDS011;24897;53.514;10.482;2023-04-24T01:00:07;45.20;;;38.70;;
23682;SDS011;24897;53.514;10.482;2023-04-24T01:02:55;41.70;;;37.20;;
23682;SDS011;24897;53.514;10.482;2023-04-24T01:05:41;42.37;;;37.80;;
23682;SDS011;24897;53.514;10.482;2023-04-24T01:08:26;41.63;;;37.20;;
23682;SDS011;24897;53.514;10.482;2023-04-24T01:11:11;42.07;;;37.57;;
23682;SDS011;24897;53.514;10.482;2023-04-24T01:13:56;41.23;;;36.83;;
23682;SDS011;24897;53.514;10.482;2023-04-24T01:16:40;39.50;;;35.07;;
23682;SDS011;24897;53.514;10.482;2023-04-24T01:19:24;40.43;;;36.03;;
23682;SDS011;24897;53.514;10.482;2023-04-24T01:22:13;40.50;;;36.10;;
23682;SDS011;24897;53.514;10.482;2023-04-24T01:24:58;41.93;;;37.37;;
23682;SDS011;24897;53.514;10.482;2023-04-24T01:27:42;40.20;;;35.87;;
23682;SDS011;24897;53.514;10.482;2023-04-24T01:30:27;42.77;;;38.23;;
23682;SDS011;24897;53.514;10.482;2023-04-24T01:33:11;41.43;;;37.03;;
23682;SDS011;24897;53.514;10.482;2023-04-24T01:35:56;41.57;;;37.10;;
23682;SDS011;24897;53.514;10.482;2023-04-24T01:38:41;40.37;;;36.10;;
23682;SDS011;24897;53.514;10.482;2023-04-24T01:41:25;40.97;;;36.57;;
23682;SDS011;24897;53.514;10.482;2023-04-24T01:44:09;41.07;;;36.77;;
23682;SDS011;24897;53.514;10.482;2023-04-24T01:46:54;41.53;;;37.03;;
23682;SDS011;24897;53.514;10.482;2023-04-24T01:49:39;40.00;;;35.90;;
23682;SDS011;24897;53.514;10.482;2023-04-24T01:52:23;39.47;;;35.27;;
23682;SDS011;24897;53.514;10.482;2023-04-24T01:55:08;39.80;;;35.70;;
23682;SDS011;24897;53.514;10.482;2023-04-24T01:57:54;40.83;;;36.53;;
23682;SDS011;24897;53.514;10.482;2023-04-24T02:00:39;39.87;;;35.57;;
23682;SDS011;24897;53.514;10.482;2023-04-24T02:03:23;39.03;;;34.83;;
23682;SDS011;24897;53.514;10.482;2023-04-24T02:06:08;38.97;;;34.67;;
23682;SDS011;24897;53.514;10.482;2023-04-24T02:08:53;38.80;;;34.70;;
23682;SDS011;24897;53.514;10.482;2023-04-24T02:11:38;38.20;;;33.93;;
23682;SDS011;24897;53.514;10.482;2023-04-24T02:14:22;39.10;;;35.00;;
23682;SDS011;24897;53.514;10.482;2023-04-24T02:17:06;40.40;;;36.00;;
23682;SDS011;24897;53.514;10.482;2023-04-24T02:19:50;40.57;;;35.73;;
23682;SDS011;24897;53.514;10.482;2023-04-24T02:22:34;41.53;;;36.27;;
23682;SDS011;24897;53.514;10.482;2023-04-24T02:25:19;38.33;;;34.23;;
23682;SDS011;24897;53.514;10.482;2023-04-24T02:28:03;38.43;;;33.53;;
23682;SDS011;24897;53.514;10.482;2023-04-24T02:30:47;35.70;;;32.00;;
23682;SDS011;24897;53.514;10.482;2023-04-24T02:33:31;35.70;;;32.00;;
23682;SDS011;24897;53.514;10.482;2023-04-24T02:36:15;36.10;;;32.40;;
23682;SDS011;24897;53.514;10.482;2023-04-24T02:39:00;35.17;;;31.67;;
23682;SDS011;24897;53.514;10.482;2023-04-24T02:41:44;34.87;;;31.37;;
23682;SDS011;24897;53.514;10.482;2023-04-24T02:44:29;34.57;;;31.07;;
23682;SDS011;24897;53.514;10.482;2023-04-24T02:47:13;35.20;;;31.50;;
23682;SDS011;24897;53.514;10.482;2023-04-24T02:49:57;35.30;;;31.80;;
23682;SDS011;24897;53.514;10.482;2023-04-24T02:52:42;35.37;;;31.87;;
23682;SDS011;24897;53.514;10.482;2023-04-24T02:55:26;36.47;;;32.87;;
23682;SDS011;24897;53.514;10.482;2023-04-24T02:58:10;36.40;;;32.90;;
23682;SDS011;24897;53.514;10.482;2023-04-24T03:00:56;34.90;;;31.50;;
23682;SDS011;24897;53.514;10.482;2023-04-24T03:03:40;36.40;;;32.80;;
23682;SDS011;24897;53.514;10.482;2023-04-24T03:06:24;35.90;;;32.37;;
23682;SDS011;24897;53.514;10.482;2023-04-24T03:09:08;35.93;;;32.33;;
23682;SDS011;24897;53.514;10.482;2023-04-24T03:11:53;37.37;;;33.67;;
23682;SDS011;24897;53.514;10.482;2023-04-24T03:14:37;36.47;;;32.77;;
23682;SDS011;24897;53.514;10.482;2023-04-24T03:17:21;36.17;;;32.50;;
23682;SDS011;24897;53.514;10.482;2023-04-24T03:20:06;38.17;;;34.33;;
23682;SDS011;24897;53.514;10.482;2023-04-24T03:22:51;36.47;;;32.77;;
23682;SDS011;24897;53.514;10.482;2023-04-24T03:25:35;35.90;;;32.10;;
23682;SDS011;24897;53.514;10.482;2023-04-24T03:28:20;36.17;;;32.47;;
23682;SDS011;24897;53.514;10.482;2023-04-24T03:31:04;35.63;;;31.87;;
23682;SDS011;24897;53.514;10.482;2023-04-24T03:33:48;38.03;;;34.07;;
23682;SDS011;24897;53.514;10.482;2023-04-24T03:36:34;37.43;;;33.47;;
23682;SDS011;24897;53.514;10.482;2023-04-24T03:39:18;36.23;;;32.33;;
23682;SDS011;24897;53.514;10.482;2023-04-24T03:42:02;35.47;;;31.67;;
23682;SDS011;24897;53.514;10.482;2023-04-24T03:44:47;35.17;;;31.47;;
23682;SDS011;24897;53.514;10.482;2023-04-24T03:47:32;36.30;;;32.43;;
23682;SDS011;24897;53.514;10.482;2023-04-24T03:50:16;34.20;;;30.60;;
23682;SDS011;24897;53.514;10.482;2023-04-24T03:52:59;36.10;;;32.20;;
23682;SDS011;24897;53.514;10.482;2023-04-24T03:55:44;37.40;;;33.57;;
23682;SDS011;24897;53.514;10.482;2023-04-24T03:58:28;38.90;;;34.80;;
23682;SDS011;24897;53.514;10.482;2023-04-24T04:01:15;37.07;;;33.27;;
23682;SDS011;24897;53.514;10.482;2023-04-24T04:04:00;36.57;;;32.77;;
23682;SDS011;24897;53.514;10.482;2023-04-24T04:06:44;35.63;;;31.93;;
23682;SDS011;24897;53.514;10.482;2023-04-24T04:09:29;34.93;;;31.13;;
23682;SDS011;24897;53.514;10.482;2023-04-24T04:12:14;34.53;;;30.93;;
23682;SDS011;24897;53.514;10.482;2023-04-24T04:14:58;34.90;;;31.20;;
23682;SDS011;24897;53.514;10.482;2023-04-24T04:17:42;34.23;;;30.73;;
23682;SDS011;24897;53.514;10.482;2023-04-24T04:20:26;33.73;;;30.43;;
23682;SDS011;24897;53.514;10.482;2023-04-24T04:23:10;33.10;;;29.90;;
23682;SDS011;24897;53.514;10.482;2023-04-24T04:25:54;32.87;;;29.77;;
23682;SDS011;24897;53.514;10.482;2023-04-24T04:28:38;33.57;;;30.27;;
23682;SDS011;24897;53.514;10.482;2023-04-24T04:31:23;33.17;;;30.07;;
23682;SDS011;24897;53.514;10.482;2023-04-24T04:34:09;33.20;;;30.03;;
23682;SDS011;24897;53.514;10.482;2023-04-24T04:36:53;32.57;;;29.37;;
23682;SDS011;24897;53.514;10.482;2023-04-24T04:39:37;32.73;;;29.63;;
23682;SDS011;24897;53.514;10.482;2023-04-24T04:42:21;31.77;;;28.87;;
23682;SDS011;24897;53.514;10.482;2023-04-24T04:45:07;28.53;;;26.13;;
23682;SDS011;24897;53.514;10.482;2023-04-24T04:47:52;27.20;;;24.90;;
23682;SDS011;24897;53.514;10.482;2023-04-24T04:50:36;29.23;;;26.83;;
23682;SDS011;24897;53.514;10.482;2023-04-24T04:53:20;28.80;;;26.30;;
23682;SDS011;24897;53.514;10.482;2023-04-24T04:56:05;32.23;;;29.40;;
23682;SDS011;24897;53.514;10.482;2023-04-24T04:58:49;27.17;;;25.07;;
23682;SDS011;24897;53.514;10.482;2023-04-24T05:01:34;20.80;;;19.20;;
23682;SDS011;24897;53.514;10.482;2023-04-24T05:04:18;18.93;;;17.47;;
23682;SDS011;24897;53.514;10.482;2023-04-24T05:07:03;18.53;;;17.03;;
23682;SDS011;24897;53.514;10.482;2023-04-24T05:09:47;20.27;;;18.67;;
23682;SDS011;24897;53.514;10.482;2023-04-24T05:12:31;20.30;;;18.60;;
23682;SDS011;24897;53.514;10.482;2023-04-24T05:15:15;20.10;;;18.50;;
23682;SDS011;24897;53.514;10.482;2023-04-24T05:17:59;19.77;;;18.27;;
23682;SDS011;24897;53.514;10.482;2023-04-24T05:20:44;19.77;;;18.27;;
23682;SDS011;24897;53.514;10.482;2023-04-24T05:23:28;19.27;;;17.80;;
23682;SDS011;24897;53.514;10.482;2023-04-24T05:26:12;18.60;;;17.20;;
23682;SDS011;24897;53.514;10.482;2023-04-24T05:28:58;18.97;;;17.47;;
23682;SDS011;24897;53.514;10.482;2023-04-24T05:31:43;19.40;;;17.77;;
23682;SDS011;24897;53.514;10.482;2023-04-24T05:34:28;19.20;;;17.50;;
23682;SDS011;24897;53.514;10.482;2023-04-24T05:37:12;19.77;;;18.27;;
23682;SDS011;24897;53.514;10.482;2023-04-24T05:39:57;21.00;;;19.33;;
23682;SDS011;24897;53.514;10.482;2023-04-24T05:42:41;22.73;;;20.83;;
23682;SDS011;24897;53.514;10.482;2023-04-24T05:45:25;23.87;;;21.97;;
23682;SDS011;24897;53.514;10.482;2023-04-24T05:48:10;23.43;;;21.43;;
23682;SDS011;24897;53.514;10.482;2023-04-24T05:50:54;23.80;;;21.80;;
23682;SDS011;24897;53.514;10.482;2023-04-24T05:53:39;23.97;;;22.17;;
23682;SDS011;24897;53.514;10.482;2023-04-24T05:56:22;23.30;;;21.50;;
23682;SDS011;24897;53.514;10.482;2023-04-24T05:59:07;23.23;;;21.27;;
23682;SDS011;24897;53.514;10.482;2023-04-24T06:01:52;22.80;;;20.87;;
23682;SDS011;24897;53.514;10.482;2023-04-24T06:04:36;22.40;;;20.60;;
23682;SDS011;24897;53.514;10.482;2023-04-24T06:07:20;22.00;;;20.20;;
23682;SDS011;24897;53.514;10.482;2023-04-24T06:10:05;21.30;;;19.53;;
23682;SDS011;24897;53.514;10.482;2023-04-24T06:12:49;21.77;;;19.80;;
23682;SDS011;24897;53.514;10.482;2023-04-24T06:15:34;22.13;;;20.23;;
23682;SDS011;24897;53.514;10.482;2023-04-24T06:18:18;21.90;;;20.10;;
23682;SDS011;24897;53.514;10.482;2023-04-24T06:21:03;22.73;;;20.87;;
23682;SDS011;24897;53.514;10.482;2023-04-24T06:23:47;22.00;;;20.30;;
23682;SDS011;24897;53.514;10.482;2023-04-24T06:26:33;22.90;;;21.10;;
23682;SDS011;24897;53.514;10.482;2023-04-24T06:29:17;23.17;;;21.27;;
23682;SDS011;24897;53.514;10.482;2023-04-24T06:32:01;21.73;;;20.03;;
23682;SDS011;24897;53.514;10.482;2023-04-24T06:34:45;21.27;;;19.47;;
23682;SDS011;24897;53.514;10.482;2023-04-24T06:37:29;20.93;;;19.33;;
23682;SDS011;24897;53.514;10.482;2023-04-24T06:40:13;20.70;;;19.00;;
23682;SDS011;24897;53.514;10.482;2023-04-24T06:42:58;21.17;;;19.57;;
23682;SDS011;24897;53.514;10.482;2023-04-24T06:45:43;21.17;;;19.53;;
23682;SDS011;24897;53.514;10.482;2023-04-24T06:48:28;21.13;;;19.53;;
23682;SDS011;24897;53.514;10.482;2023-04-24T06:51:13;20.47;;;18.80;;
23682;SDS011;24897;53.514;10.482;2023-04-24T06:53:57;21.03;;;19.33;;
23682;SDS011;24897;53.514;10.482;2023-04-24T06:56:41;21.37;;;19.77;;
23682;SDS011;24897;53.514;10.482;2023-04-24T06:59:31;21.07;;;19.37;;
23682;SDS011;24897;53.514;10.482;2023-04-24T07:02:15;20.40;;;18.80;;
23682;SDS011;24897;53.514;10.482;2023-04-24T07:04:59;21.43;;;19.80;;
23682;SDS011;24897;53.514;10.482;2023-04-24T07:07:45;20.57;;;18.97;;
23682;SDS011;24897;53.514;10.482;2023-04-24T07:10:31;20.77;;;19.17;;
23682;SDS011;24897;53.514;10.482;2023-04-24T07:13:15;20.53;;;18.73;;
23682;SDS011;24897;53.514;10.482;2023-04-24T07:16:01;19.70;;;18.20;;
23682;SDS011;24897;53.514;10.482;2023-04-24T07:18:45;19.50;;;17.90;;
23682;SDS011;24897;53.514;10.482;2023-04-24T07:21:29;19.17;;;17.77;;
23682;SDS011;24897;53.514;10.482;2023-04-24T07:24:15;19.60;;;18.10;;
23682;SDS011;24897;53.514;10.482;2023-04-24T07:26:59;19.90;;;18.13;;
23682;SDS011;24897;53.514;10.482;2023-04-24T07:29:47;18.60;;;16.80;;
23682;SDS011;24897;53.514;10.482;2023-04-24T07:32:31;17.70;;;16.30;;
23682;SDS011;24897;53.514;10.482;2023-04-24T07:35:15;17.20;;;15.80;;
23682;SDS011;24897;53.514;10.482;2023-04-24T07:38:00;17.57;;;16.27;;
23682;SDS011;24897;53.514;10.482;2023-04-24T07:40:44;17.80;;;16.50;;
23682;SDS011;24897;53.514;10.482;2023-04-24T07:43:28;21.70;;;19.73;;
23682;SDS011;24897;53.514;10.482;2023-04-24T07:46:12;16.47;;;15.27;;
23682;SDS011;24897;53.514;10.482;2023-04-24T07:48:56;16.17;;;14.97;;
23682;SDS011;24897;53.514;10.482;2023-04-24T07:51:41;15.83;;;14.53;;
23682;SDS011;24897;53.514;10.482;2023-04-24T07:54:25;16.58;;;15.25;;
23682;SDS011;24897;53.514;10.482;2023-04-24T07:57:09;16.50;;;15.10;;
23682;SDS011;24897;53.514;10.482;2023-04-24T07:59:53;15.93;;;14.73;;
23682;SDS011;24897;53.514;10.482;2023-04-24T08:02:38;15.60;;;14.50;;
23682;SDS011;24897;53.514;10.482;2023-04-24T08:05:22;16.07;;;14.87;;
23682;SDS011;24897;53.514;10.482;2023-04-24T08:08:09;16.23;;;15.03;;
23682;SDS011;24897;53.514;10.482;2023-04-24T08:10:53;16.40;;;15.20;;
23682;SDS011;24897;53.514;10.482;2023-04-24T08:13:38;16.27;;;14.97;;
23682;SDS011;24897;53.514;10.482;2023-04-24T08:16:22;15.80;;;14.50;;
23682;SDS011;24897;53.514;10.482;2023-04-24T08:19:09;16.27;;;15.07;;
23682;SDS011;24897;53.514;10.482;2023-04-24T08:21:53;16.17;;;14.83;;
23682;SDS011;24897;53.514;10.482;2023-04-24T08:24:38;16.10;;;14.87;;
23682;SDS011;24897;53.514;10.482;2023-04-24T08:27:25;16.07;;;14.67;;
23682;SDS011;24897;53.514;10.482;2023-04-24T08:30:10;16.27;;;14.90;;
23682;SDS011;24897;53.514;10.482;2023-04-24T08:32:55;16.20;;;14.90;;
23682;SDS011;24897;53.514;10.482;2023-04-24T08:35:40;16.30;;;15.07;;
23682;SDS011;24897;53.514;10.482;2023-04-24T08:38:24;17.20;;;15.80;;
23682;SDS011;24897;53.514;10.482;2023-04-24T08:41:08;16.33;;;15.13;;
23682;SDS011;24897;53.514;10.482;2023-04-24T08:43:53;16.57;;;15.27;;
23682;SDS011;24897;53.514;10.482;2023-04-24T08:46:43;16.50;;;15.30;;
23682;SDS011;24897;53.514;10.482;2023-04-24T08:49:30;16.43;;;15.20;;
23682;SDS011;24897;53.514;10.482;2023-04-24T08:52:15;17.30;;;15.90;;
23682;SDS011;24897;53.514;10.482;2023-04-24T08:55:00;16.97;;;15.67;;
23682;SDS011;24897;53.514;10.482;2023-04-24T08:57:45;17.93;;;16.53;;
23682;SDS011;24897;53.514;10.482;2023-04-24T09:00:33;16.60;;;15.40;;
23682;SDS011;24897;53.514;10.482;2023-04-24T09:03:17;17.37;;;15.97;;
23682;SDS011;24897;53.514;10.482;2023-04-24T09:06:02;17.83;;;16.37;;
23682;SDS011;24897;53.514;10.482;2023-04-24T09:08:47;16.97;;;15.67;;
23682;SDS011;24897;53.514;10.482;2023-04-24T09:11:34;17.20;;;15.90;;
23682;SDS011;24897;53.514;10.482;2023-04-24T09:14:19;17.87;;;16.50;;
23682;SDS011;24897;53.514;10.482;2023-04-24T09:17:04;19.20;;;17.50;;
23682;SDS011;24897;53.514;10.482;2023-04-24T09:19:49;18.87;;;17.37;;
23682;SDS011;24897;53.514;10.482;2023-04-24T09:22:33;19.77;;;18.17;;
23682;SDS011;24897;53.514;10.482;2023-04-24T09:25:18;19.37;;;17.77;;
23682;SDS011;24897;53.514;10.482;2023-04-24T09:28:03;19.20;;;17.70;;
23682;SDS011;24897;53.514;10.482;2023-04-24T09:30:51;19.33;;;17.83;;
23682;SDS011;24897;53.514;10.482;2023-04-24T09:33:56;18.93;;;17.33;;
23682;SDS011;24897;53.514;10.482;2023-04-24T09:36:42;22.03;;;19.50;;
23682;SDS011;24897;53.514;10.482;2023-04-24T09:39:27;20.30;;;18.60;;
23682;SDS011;24897;53.514;10.482;2023-04-24T09:42:11;19.53;;;17.83;;
23682;SDS011;24897;53.514;10.482;2023-04-24T09:44:55;20.10;;;18.33;;
23682;SDS011;24897;53.514;10.482;2023-04-24T09:47:40;20.03;;;18.37;;
23682;SDS011;24897;53.514;10.482;2023-04-24T09:50:24;19.53;;;17.93;;
23682;SDS011;24897;53.514;10.482;2023-04-24T09:53:09;20.00;;;18.40;;
23682;SDS011;24897;53.514;10.482;2023-04-24T09:55:54;19.87;;;18.17;;
23682;SDS011;24897;53.514;10.482;2023-04-24T09:58:38;20.03;;;18.40;;
23682;SDS011;24897;53.514;10.482;2023-04-24T10:01:30;21.07;;;19.13;;
23682;SDS011;24897;53.514;10.482;2023-04-24T10:04:16;20.53;;;18.83;;
23682;SDS011;24897;53.514;10.482;2023-04-24T10:07:05;21.53;;;19.63;;
23682;SDS011;24897;53.514;10.482;2023-04-24T10:09:50;20.47;;;18.77;;
23682;SDS011;24897;53.514;10.482;2023-04-24T10:12:34;19.37;;;17.77;;
23682;SDS011;24897;53.514;10.482;2023-04-24T10:15:18;19.80;;;18.10;;
23682;SDS011;24897;53.514;10.482;2023-04-24T10:18:05;21.43;;;19.57;;
23682;SDS011;24897;53.514;10.482;2023-04-24T10:20:53;21.17;;;19.27;;
23682;SDS011;24897;53.514;10.482;2023-04-24T10:23:38;20.60;;;18.80;;
23682;SDS011;24897;53.514;10.482;2023-04-24T10:26:25;19.47;;;17.87;;
23682;SDS011;24897;53.514;10.482;2023-04-24T10:29:12;18.60;;;16.90;;
23682;SDS011;24897;53.514;10.482;2023-04-24T10:31:57;19.70;;;18.10;;
23682;SDS011;24897;53.514;10.482;2023-04-24T10:34:41;19.30;;;17.70;;
23682;SDS011;24897;53.514;10.482;2023-04-24T10:37:25;19.93;;;18.33;;
23682;SDS011;24897;53.514;10.482;2023-04-24T10:40:11;21.57;;;19.57;;
23682;SDS011;24897;53.514;10.482;2023-04-24T10:43:02;22.20;;;20.17;;
23682;SDS011;24897;53.514;10.482;2023-04-24T10:46:02;21.90;;;19.93;;
23682;SDS011;24897;53.514;10.482;2023-04-24T10:48:54;21.33;;;19.43;;
23682;SDS011;24897;53.514;10.482;2023-04-24T11:00:24;21.10;;;19.30;;
23682;SDS011;24897;53.514;10.482;2023-04-24T11:03:27;21.40;;;19.57;;
23682;SDS011;24897;53.514;10.482;2023-04-24T11:06:12;21.73;;;19.90;;
23682;SDS011;24897;53.514;10.482;2023-04-24T11:09:06;22.13;;;20.20;;
23682;SDS011;24897;53.514;10.482;2023-04-24T11:11:53;22.83;;;20.73;;
23682;SDS011;24897;53.514;10.482;2023-04-24T11:14:59;22.67;;;20.75;;
23682;SDS011;24897;53.514;10.482;2023-04-24T11:17:44;23.43;;;21.33;;
23682;SDS011;24897;53.514;10.482;2023-04-24T11:20:28;23.37;;;21.20;;
23682;SDS011;24897;53.514;10.482;2023-04-24T11:23:13;22.43;;;20.50;;
23682;SDS011;24897;53.514;10.482;2023-04-24T11:29:16;21.97;;;20.07;;
23682;SDS011;24897;53.514;10.482;2023-04-24T11:32:17;22.47;;;20.47;;
23682;SDS011;24897;53.514;10.482;2023-04-24T11:35:21;21.77;;;19.63;;
23682;SDS011;24897;53.514;10.482;2023-04-24T11:38:08;21.43;;;19.53;;
23682;SDS011;24897;53.514;10.482;2023-04-24T11:40:53;21.87;;;20.00;;
23682;SDS011;24897;53.514;10.482;2023-04-24T11:43:39;22.20;;;20.23;;
23682;SDS011;24897;53.514;10.482;2023-04-24T11:46:29;22.97;;;20.87;;
23682;SDS011;24897;53.514;10.482;2023-04-24T11:49:15;22.20;;;20.10;;
23682;SDS011;24897;53.514;10.482;2023-04-24T11:52:02;21.67;;;19.77;;
23682;SDS011;24897;53.514;10.482;2023-04-24T11:54:49;22.20;;;20.27;;
23682;SDS011;24897;53.514;10.482;2023-04-24T11:57:34;21.07;;;19.17;;
23682;SDS011;24897;53.514;10.482;2023-04-24T12:00:21;21.23;;;19.40;;
23682;SDS011;24897;53.514;10.482;2023-04-24T12:03:10;20.93;;;19.13;;
23682;SDS011;24897;53.514;10.482;2023-04-24T12:06:05;19.50;;;17.90;;
23682;SDS011;24897;53.514;10.482;2023-04-24T12:08:53;20.07;;;18.17;;
23682;SDS011;24897;53.514;10.482;2023-04-24T12:11:38;28.67;;;26.00;;
23682;SDS011;24897;53.514;10.482;2023-04-24T12:17:29;20.30;;;18.40;;
23682;SDS011;24897;53.514;10.482;2023-04-24T12:20:14;21.00;;;19.00;;
23682;SDS011;24897;53.514;10.482;2023-04-24T12:22:59;21.23;;;19.33;;
23682;SDS011;24897;53.514;10.482;2023-04-24T12:25:45;20.57;;;18.87;;
23682;SDS011;24897;53.514;10.482;2023-04-24T12:28:34;19.60;;;17.77;;
23682;SDS011;24897;53.514;10.482;2023-04-24T12:31:20;20.13;;;18.37;;
23682;SDS011;24897;53.514;10.482;2023-04-24T12:34:16;19.60;;;17.90;;
23682;SDS011;24897;53.514;10.482;2023-04-24T12:37:11;20.03;;;18.33;;
23682;SDS011;24897;53.514;10.482;2023-04-24T12:39:59;20.23;;;18.33;;
23682;SDS011;24897;53.514;10.482;2023-04-24T12:42:51;19.93;;;18.23;;
23682;SDS011;24897;53.514;10.482;2023-04-24T12:45:36;19.90;;;18.30;;
23682;SDS011;24897;53.514;10.482;2023-04-24T12:48:20;19.03;;;17.43;;
23682;SDS011;24897;53.514;10.482;2023-04-24T12:51:05;19.07;;;17.30;;
23682;SDS011;24897;53.514;10.482;2023-04-24T12:53:49;18.80;;;17.20;;
23682;SDS011;24897;53.514;10.482;2023-04-24T12:56:34;18.93;;;17.30;;
23682;SDS011;24897;53.514;10.482;2023-04-24T12:59:22;19.00;;;17.40;;
23682;SDS011;24897;53.514;10.482;2023-04-24T13:02:06;18.90;;;17.40;;
23682;SDS011;24897;53.514;10.482;2023-04-24T13:04:52;18.80;;;17.10;;
23682;SDS011;24897;53.514;10.482;2023-04-24T13:07:37;19.10;;;17.40;;
23682;SDS011;24897;53.514;10.482;2023-04-24T13:10:21;19.73;;;18.03;;
23682;SDS011;24897;53.514;10.482;2023-04-24T13:13:05;19.40;;;17.50;;
23682;SDS011;24897;53.514;10.482;2023-04-24T13:15:49;18.83;;;17.23;;
23682;SDS011;24897;53.514;10.482;2023-04-24T13:18:34;19.50;;;17.90;;
23682;SDS011;24897;53.514;10.482;2023-04-24T13:21:19;19.60;;;17.93;;
23682;SDS011;24897;53.514;10.482;2023-04-24T13:24:03;19.07;;;17.47;;
23682;SDS011;24897;53.514;10.482;2023-04-24T13:26:48;19.27;;;17.67;;
23682;SDS011;24897;53.514;10.482;2023-04-24T13:29:32;19.60;;;17.93;;
23682;SDS011;24897;53.514;10.482;2023-04-24T13:32:17;18.70;;;17.20;;
23682;SDS011;24897;53.514;10.482;2023-04-24T13:35:01;19.53;;;17.83;;
23682;SDS011;24897;53.514;10.482;2023-04-24T13:37:46;19.73;;;18.13;;
23682;SDS011;24897;53.514;10.482;2023-04-24T13:40:30;19.87;;;18.17;;
23682;SDS011;24897;53.514;10.482;2023-04-24T13:43:14;18.37;;;16.87;;
23682;SDS011;24897;53.514;10.482;2023-04-24T13:45:59;17.80;;;16.40;;
23682;SDS011;24897;53.514;10.482;2023-04-24T13:48:45;17.90;;;16.50;;
23682;SDS011;24897;53.514;10.482;2023-04-24T13:51:30;19.87;;;18.17;;
23682;SDS011;24897;53.514;10.482;2023-04-24T13:54:14;23.00;;;21.00;;
23682;SDS011;24897;53.514;10.482;2023-04-24T13:56:58;24.10;;;21.97;;
23682;SDS011;24897;53.514;10.482;2023-04-24T13:59:43;24.27;;;22.17;;
23682;SDS011;24897;53.514;10.482;2023-04-24T14:02:29;25.60;;;23.50;;
23682;SDS011;24897;53.514;10.482;2023-04-24T14:05:13;24.30;;;22.10;;
23682;SDS011;24897;53.514;10.482;2023-04-24T14:07:59;22.27;;;20.40;;
23682;SDS011;24897;53.514;10.482;2023-04-24T14:10:43;23.55;;;21.65;;
23682;SDS011;24897;53.514;10.482;2023-04-24T14:13:27;22.27;;;20.37;;
23682;SDS011;24897;53.514;10.482;2023-04-24T14:16:12;20.87;;;19.10;;
23682;SDS011;24897;53.514;10.482;2023-04-24T14:18:57;20.27;;;18.57;;
23682;SDS011;24897;53.514;10.482;2023-04-24T14:21:41;19.00;;;17.40;;
23682;SDS011;24897;53.514;10.482;2023-04-24T14:24:25;19.80;;;18.20;;
23682;SDS011;24897;53.514;10.482;2023-04-24T14:27:10;18.80;;;17.40;;
23682;SDS011;24897;53.514;10.482;2023-04-24T14:29:54;19.30;;;17.90;;
23682;SDS011;24897;53.514;10.482;2023-04-24T14:32:38;18.63;;;17.27;;
23682;SDS011;24897;53.514;10.482;2023-04-24T14:35:22;19.03;;;17.43;;
23682;SDS011;24897;53.514;10.482;2023-04-24T14:38:07;19.33;;;17.77;;
23682;SDS011;24897;53.514;10.482;2023-04-24T14:40:54;19.37;;;17.87;;
23682;SDS011;24897;53.514;10.482;2023-04-24T14:43:39;18.97;;;17.47;;
23682;SDS011;24897;53.514;10.482;2023-04-24T14:46:24;19.53;;;17.93;;
23682;SDS011;24897;53.514;10.482;2023-04-24T14:49:08;19.27;;;17.77;;
23682;SDS011;24897;53.514;10.482;2023-04-24T14:51:53;19.63;;;18.03;;
23682;SDS011;24897;53.514;10.482;2023-04-24T14:54:37;19.80;;;18.20;;
23682;SDS011;24897;53.514;10.482;2023-04-24T14:57:21;19.03;;;17.43;;
23682;SDS011;24897;53.514;10.482;2023-04-24T15:00:06;21.73;;;19.73;;
23682;SDS011;24897;53.514;10.482;2023-04-24T15:02:53;22.20;;;20.40;;
23682;SDS011;24897;53.514;10.482;2023-04-24T15:05:38;22.57;;;20.57;;
23682;SDS011;24897;53.514;10.482;2023-04-24T15:08:23;21.97;;;20.07;;
23682;SDS011;24897;53.514;10.482;2023-04-24T15:11:07;21.90;;;20.10;;
23682;SDS011;24897;53.514;10.482;2023-04-24T15:13:53;21.67;;;19.77;;
23682;SDS011;24897;53.514;10.482;2023-04-24T15:16:38;20.70;;;19.00;;
23682;SDS011;24897;53.514;10.482;2023-04-24T15:19:22;20.97;;;19.17;;
23682;SDS011;24897;53.514;10.482;2023-04-24T15:22:06;20.03;;;18.33;;
23682;SDS011;24897;53.514;10.482;2023-04-24T15:24:53;20.57;;;18.87;;
23682;SDS011;24897;53.514;10.482;2023-04-24T15:27:43;20.83;;;19.07;;
23682;SDS011;24897;53.514;10.482;2023-04-24T15:30:28;20.60;;;18.80;;
23682;SDS011;24897;53.514;10.482;2023-04-24T15:33:13;21.03;;;19.33;;
23682;SDS011;24897;53.514;10.482;2023-04-24T15:35:57;21.10;;;19.30;;
23682;SDS011;24897;53.514;10.482;2023-04-24T15:38:42;20.97;;;19.07;;
23682;SDS011;24897;53.514;10.482;2023-04-24T15:41:27;22.90;;;21.10;;
23682;SDS011;24897;53.514;10.482;2023-04-24T15:44:11;29.57;;;27.07;;
23682;SDS011;24897;53.514;10.482;2023-04-24T15:46:55;33.37;;;30.47;;
23682;SDS011;24897;53.514;10.482;2023-04-24T15:49:39;34.73;;;31.43;;
23682;SDS011;24897;53.514;10.482;2023-04-24T15:52:24;36.17;;;32.57;;
23682;SDS011;24897;53.514;10.482;2023-04-24T15:55:08;36.53;;;32.83;;
23682;SDS011;24897;53.514;10.482;2023-04-24T15:57:53;39.10;;;34.10;;
23682;SDS011;24897;53.514;10.482;2023-04-24T16:00:37;39.00;;;34.50;;
23682;SDS011;24897;53.514;10.482;2023-04-24T16:03:22;37.97;;;32.83;;
23682;SDS011;24897;53.514;10.482;2023-04-24T16:06:06;38.50;;;33.50;;
23682;SDS011;24897;53.514;10.482;2023-04-24T16:08:50;38.77;;;34.40;;